Time;durP1;ratioP1;P1;durP2;ratioP2;P2;SDS_P1;SDS_P2;PMS_P1;PMS_P2;Temp;Humidity;BMP_temperature;BMP_pressure;BME280_temperature;BME280_humidity;BME280_pressure;Samples;Min_cycle;Max_cycle;Signal;HPM_P1;HPM_P2
2024/01/26 00:01:03;;;;;;;6.05;3.47;;;;;;;5.66;52.61;95235.44;5095277;28;20635;-69
2024/01/26 00:03:30;;;;;;;5.82;3.58;;;;;;;5.63;52.82;95234.19;5094771;28;20200;-69
2024/01/26 00:05:57;;;;;;;5.35;3.30;;;;;;;5.60;53.00;95240.28;5094218;28;20218;-69
2024/01/26 00:08:25;;;;;;;5.95;3.60;;;;;;;5.59;53.42;95244.13;5095055;28;20583;-69
2024/01/26 00:10:52;;;;;;;6.80;4.65;;;;;;;5.59;53.02;95246.84;5094432;28;20242;-69
2024/01/26 00:13:19;;;;;;;5.57;3.88;;;;;;;5.58;53.60;95250.72;5094373;28;20246;-69
2024/01/26 00:15:47;;;;;;;8.73;4.82;;;;;;;5.58;53.10;95249.91;5094745;28;20257;-69
2024/01/26 00:18:14;;;;;;;8.32;4.57;;;;;;;5.54;53.63;95252.47;5095273;28;20184;-69
2024/01/26 00:20:41;;;;;;;8.05;4.60;;;;;;;5.55;53.56;95262.28;5094524;28;20216;-69
2024/01/26 00:23:08;;;;;;;8.82;5.57;;;;;;;5.53;53.53;95268.09;5094602;28;20300;-69
2024/01/26 00:25:36;;;;;;;4.18;3.40;;;;;;;5.51;53.55;95269.53;5094086;28;20600;-69
2024/01/26 00:28:04;;;;;;;5.03;3.60;;;;;;;5.53;53.36;95276.31;5095214;28;20212;-69
2024/01/26 00:30:31;;;;;;;4.57;3.53;;;;;;;5.53;53.25;95280.97;5113230;28;20314;-69
2024/01/26 00:32:59;;;;;;;5.90;3.75;;;;;;;5.58;53.14;95291.75;5115802;28;20241;-68
2024/01/26 00:35:28;;;;;;;3.50;3.15;;;;;;;5.55;52.78;95281.44;5115182;28;20249;-68
2024/01/26 00:37:55;;;;;;;4.78;3.45;;;;;;;5.55;52.80;95278.72;5097472;28;20225;-69
2024/01/26 00:40:22;;;;;;;4.68;3.25;;;;;;;5.54;53.35;95283.38;5098298;28;20239;-69
2024/01/26 00:42:50;;;;;;;4.90;3.22;;;;;;;5.57;53.01;95287.41;5098250;28;20204;-69
2024/01/26 00:45:17;;;;;;;5.10;3.40;;;;;;;5.55;53.00;95286.91;5101845;28;20712;-69
2024/01/26 00:47:44;;;;;;;5.05;3.28;;;;;;;5.55;53.05;95278.72;5101201;28;20192;-69
2024/01/26 00:50:11;;;;;;;5.15;3.03;;;;;;;5.51;53.00;95278.53;5118116;28;20265;-69
2024/01/26 00:52:38;;;;;;;4.60;3.05;;;;;;;5.50;52.66;95282.41;5118990;28;20697;-69
2024/01/26 00:55:06;;;;;;;4.63;2.75;;;;;;;5.46;52.74;95292.34;5118951;28;20211;-69
2024/01/26 00:57:33;;;;;;;6.07;3.13;;;;;;;5.45;52.63;95292.69;5101033;28;20233;-69
2024/01/26 01:00:07;;;;;;;4.05;2.70;;;;;;;5.44;52.46;95296.53;5118909;28;20184;-69
2024/01/26 01:02:34;;;;;;;3.92;2.75;;;;;;;5.40;52.30;95295.53;5101096;28;20226;-69
2024/01/26 01:05:01;;;;;;;3.58;2.42;;;;;;;5.34;52.51;95297.63;5100812;28;20199;-68
2024/01/26 01:07:28;;;;;;;5.00;3.17;;;;;;;5.34;52.74;95288.59;5119107;28;20180;-68
2024/01/26 01:09:55;;;;;;;4.35;2.40;;;;;;;5.32;52.38;95295.19;5118698;28;20596;-68
2024/01/26 01:12:22;;;;;;;4.10;2.42;;;;;;;5.34;52.63;95305.00;5101822;28;20234;-69
2024/01/26 01:14:51;;;;;;;5.03;2.50;;;;;;;5.30;52.13;95291.97;5118840;28;20192;-69
2024/01/26 01:17:19;;;;;;;4.70;2.72;;;;;;;5.28;52.29;95296.13;5119068;28;20194;-69
2024/01/26 01:19:46;;;;;;;5.65;2.85;;;;;;;5.27;52.47;95295.31;5118769;28;20230;-69
2024/01/26 01:22:13;;;;;;;3.03;2.17;;;;;;;5.28;52.28;95307.88;5118685;28;20219;-69
2024/01/26 01:24:40;;;;;;;4.03;2.67;;;;;;;5.28;52.31;95304.34;5101093;28;20200;-69
2024/01/26 01:27:07;;;;;;;4.05;2.30;;;;;;;5.26;52.34;95314.78;5118395;28;20252;-69
2024/01/26 01:29:35;;;;;;;4.32;2.58;;;;;;;5.28;52.21;95310.59;5118279;28;20239;-69
2024/01/26 01:32:02;;;;;;;5.07;2.83;;;;;;;5.29;52.53;95311.41;5101446;28;20192;-68
2024/01/26 01:34:30;;;;;;;4.60;2.50;;;;;;;5.29;52.48;95301.28;5117826;28;20203;-68
2024/01/26 01:36:58;;;;;;;5.38;2.53;;;;;;;5.28;52.18;95309.81;5100625;28;20196;-68
2024/01/26 01:39:25;;;;;;;3.33;2.28;;;;;;;5.27;52.35;95316.41;5100198;28;20260;-69
2024/01/26 01:41:52;;;;;;;4.93;2.72;;;;;;;5.26;52.64;95321.03;5117962;28;20257;-69
2024/01/26 01:44:19;;;;;;;4.85;2.50;;;;;;;5.23;52.73;95307.22;5118087;28;20184;-69
2024/01/26 01:46:46;;;;;;;4.15;2.63;;;;;;;5.21;53.06;95320.38;5100500;28;20203;-69
2024/01/26 01:49:13;;;;;;;5.68;2.45;;;;;;;5.20;52.92;95311.38;5117873;28;20282;-69
2024/01/26 01:51:45;;;;;;;4.18;2.80;;;;;;;5.21;53.10;95323.91;5118542;28;20249;-69
2024/01/26 01:54:13;;;;;;;5.20;2.83;;;;;;;5.18;52.74;95318.28;5100395;28;20325;-69
2024/01/26 01:56:40;;;;;;;3.83;2.55;;;;;;;5.15;52.92;95318.88;5117377;28;20180;-69
2024/01/26 01:59:07;;;;;;;4.47;2.70;;;;;;;5.13;53.13;95315.69;5118080;28;20261;-69
2024/01/26 02:01:34;;;;;;;4.28;2.80;;;;;;;5.09;53.41;95322.88;5100345;28;20311;-69
2024/01/26 02:04:02;;;;;;;4.28;2.67;;;;;;;5.06;53.48;95335.25;5118267;28;20196;-69
2024/01/26 02:06:30;;;;;;;4.40;2.60;;;;;;;5.03;53.64;95328.47;5118405;28;20192;-69
2024/01/26 02:08:58;;;;;;;3.85;2.53;;;;;;;5.02;53.83;95328.78;5100490;28;20248;-69
2024/01/26 02:11:25;;;;;;;6.43;2.88;;;;;;;5.06;53.80;95318.84;5100495;28;20578;-69
2024/01/26 02:13:52;;;;;;;4.80;2.63;;;;;;;5.05;53.80;95323.50;5117517;28;20183;-69
2024/01/26 02:16:20;;;;;;;3.65;2.53;;;;;;;5.07;53.45;95318.53;5117739;28;20508;-69
2024/01/26 02:18:47;;;;;;;4.50;2.42;;;;;;;5.11;53.76;95324.16;5100609;28;20240;-69
2024/01/26 02:21:14;;;;;;;5.85;2.67;;;;;;;5.14;53.69;95326.28;5099394;28;20207;-69
2024/01/26 02:23:43;;;;;;;5.97;2.42;;;;;;;5.17;52.96;95322.94;5100379;28;20214;-69
2024/01/26 02:26:11;;;;;;;4.47;2.53;;;;;;;5.20;52.61;95326.97;5100046;28;20199;-69
2024/01/26 02:28:38;;;;;;;4.18;2.45;;;;;;;5.21;52.75;95318.44;5117058;28;20231;-69
2024/01/26 02:31:05;;;;;;;4.80;2.70;;;;;;;5.24;52.46;95322.50;5117384;28;20248;-69
2024/01/26 02:33:32;;;;;;;4.28;2.60;;;;;;;5.22;52.63;95319.25;5099450;28;20538;-69
2024/01/26 02:35:59;;;;;;;4.60;2.40;;;;;;;5.23;52.33;95308.03;5099423;28;20218;-69
2024/01/26 02:38:26;;;;;;;3.83;2.60;;;;;;;5.24;52.85;95322.50;5099691;28;20227;-69
2024/01/26 02:40:54;;;;;;;3.42;2.63;;;;;;;5.24;52.58;95317.81;5099292;28;20272;-69
2024/01/26 02:43:21;;;;;;;3.88;2.35;;;;;;;5.22;52.53;95322.00;5116986;28;20220;-69
2024/01/26 02:45:48;;;;;;;4.40;2.65;;;;;;;5.22;52.69;95316.53;5117114;28;20240;-69
2024/01/26 02:48:16;;;;;;;4.55;2.58;;;;;;;5.18;52.57;95316.34;5100006;28;20215;-69
2024/01/26 02:50:43;;;;;;;4.13;2.53;;;;;;;5.20;52.45;95310.56;5098840;28;20517;-69
2024/01/26 02:53:10;;;;;;;4.03;2.50;;;;;;;5.19;52.16;95308.94;5117006;28;20180;-69
2024/01/26 02:55:37;;;;;;;4.88;2.70;;;;;;;5.20;52.67;95319.56;5116965;28;20188;-69
2024/01/26 02:58:07;;;;;;;4.90;2.75;;;;;;;5.21;52.48;95318.44;5098652;28;20203;-69
2024/01/26 03:00:34;;;;;;;4.63;2.38;;;;;;;5.18;52.82;95316.34;5115613;28;20203;-69
2024/01/26 03:03:01;;;;;;;4.32;2.88;;;;;;;5.20;52.80;95313.31;5098859;28;20260;-69
2024/01/26 03:05:28;;;;;;;4.95;2.53;;;;;;;5.22;52.98;95314.59;5116362;28;20176;-69
2024/01/26 03:07:55;;;;;;;3.97;2.50;;;;;;;5.24;53.25;95323.31;5099080;28;20200;-69
2024/01/26 03:10:22;;;;;;;4.70;2.70;;;;;;;5.28;52.89;95331.69;5116333;28;20686;-69
2024/01/26 03:12:49;;;;;;;5.05;2.80;;;;;;;5.30;52.72;95326.69;5116667;28;20222;-69
2024/01/26 03:15:21;;;;;;;5.18;3.00;;;;;;;5.28;52.68;95320.75;5116513;28;20241;-69
2024/01/26 03:17:49;;;;;;;4.57;2.50;;;;;;;5.32;53.21;95324.47;5099415;28;20604;-69
2024/01/26 03:20:16;;;;;;;3.42;2.33;;;;;;;5.32;52.89;95328.00;5116462;28;20252;-69
2024/01/26 03:22:44;;;;;;;4.90;2.78;;;;;;;5.32;53.05;95333.47;5097638;28;20223;-69
2024/01/26 03:25:11;;;;;;;5.00;2.60;;;;;;;5.34;53.32;95321.41;5098736;28;20207;-69
2024/01/26 03:27:38;;;;;;;5.05;2.50;;;;;;;5.36;52.80;95324.66;5115995;28;20226;-69
2024/01/26 03:30:06;;;;;;;3.50;2.40;;;;;;;5.38;52.78;95325.16;5094808;28;20220;-69
2024/01/26 03:32:35;;;;;;;3.95;2.55;;;;;;;5.36;52.82;95319.97;5095642;28;20197;-69
2024/01/26 03:35:02;;;;;;;3.88;2.50;;;;;;;5.38;53.21;95325.97;5095952;28;20184;-69
2024/01/26 03:37:29;;;;;;;4.15;2.60;;;;;;;5.40;52.67;95323.69;5094911;28;20607;-69
2024/01/26 03:39:56;;;;;;;3.97;2.50;;;;;;;5.42;52.99;95318.72;5096352;28;20249;-69
2024/01/26 03:42:23;;;;;;;4.93;2.70;;;;;;;5.42;52.88;95321.47;5094531;28;20208;-69
2024/01/26 03:44:50;;;;;;;6.13;2.70;;;;;;;5.44;53.14;95312.94;5095752;28;20231;-69
2024/01/26 03:47:17;;;;;;;3.75;2.65;;;;;;;5.43;52.73;95314.88;5094776;28;20184;-69
2024/01/26 03:49:45;;;;;;;5.47;2.60;;;;;;;5.43;52.73;95308.59;5095000;28;20200;-69
2024/01/26 03:52:12;;;;;;;4.25;2.60;;;;;;;5.44;52.75;95316.47;5095851;28;20195;-69
2024/01/26 03:54:40;;;;;;;3.97;2.70;;;;;;;5.43;52.76;95320.34;5095856;28;20554;-69
2024/01/26 03:57:07;;;;;;;4.35;2.60;;;;;;;5.36;52.87;95311.78;5095514;28;20231;-69
2024/01/26 03:59:34;;;;;;;6.45;3.05;;;;;;;5.37;52.70;95320.78;5095118;28;20208;-69
2024/01/26 04:02:01;;;;;;;4.50;3.00;;;;;;;5.38;52.59;95317.75;5094195;28;20306;-71
2024/01/26 04:04:28;;;;;;;4.22;3.00;;;;;;;5.41;52.79;95303.44;5094633;28;20236;-70
2024/01/26 04:06:56;;;;;;;5.20;2.75;;;;;;;5.43;52.76;95312.13;5094925;28;20196;-70
2024/01/26 04:09:24;;;;;;;4.25;2.47;;;;;;;5.45;52.33;95314.56;5095056;28;20249;-71
2024/01/26 04:11:50;;;;;;;3.70;2.58;;;;;;;5.45;52.00;95314.56;5094523;28;20196;-71
2024/01/26 04:14:17;;;;;;;5.93;2.63;;;;;;;5.44;51.71;95319.22;5094399;28;20222;-70
2024/01/26 04:16:44;;;;;;;3.75;2.33;;;;;;;5.46;52.30;95318.91;5094413;28;20253;-70
2024/01/26 04:19:11;;;;;;;4.75;2.97;;;;;;;5.50;51.68;95314.44;5098338;28;20185;-72
2024/01/26 04:21:38;;;;;;;4.28;2.20;;;;;;;5.51;52.16;95324.25;5099453;28;20234;-71
2024/01/26 04:24:08;;;;;;;3.88;2.90;;;;;;;5.51;51.56;95327.78;5099631;28;20196;-71
2024/01/26 04:26:35;;;;;;;4.47;2.45;;;;;;;5.54;51.70;95345.50;5099685;28;20184;-71
2024/01/26 04:29:02;;;;;;;4.00;2.42;;;;;;;5.56;51.83;95340.53;5105813;28;20638;-71
2024/01/26 04:31:29;;;;;;;3.72;2.50;;;;;;;5.58;51.07;95349.22;5101525;28;20632;-72
2024/01/26 04:33:56;;;;;;;4.50;2.72;;;;;;;5.57;51.15;95349.56;5119497;28;20595;-71
2024/01/26 04:36:23;;;;;;;4.45;2.50;;;;;;;5.55;51.23;95347.09;5102148;28;20199;-72
2024/01/26 04:38:50;;;;;;;2.85;2.15;;;;;;;5.54;51.48;95349.03;5119285;28;20218;-72
2024/01/26 04:41:18;;;;;;;3.83;2.40;;;;;;;5.56;51.34;95362.44;5119562;28;20215;-72
2024/01/26 04:43:46;;;;;;;3.63;2.20;;;;;;;5.54;51.31;95360.00;5102392;28;20200;-71
2024/01/26 04:46:13;;;;;;;4.55;2.90;;;;;;;5.57;51.46;95360.50;5119512;28;20217;-71
2024/01/26 04:48:40;;;;;;;4.90;2.28;;;;;;;5.53;51.26;95352.09;5102339;28;20257;-71
2024/01/26 04:51:07;;;;;;;4.60;2.40;;;;;;;5.54;51.55;95364.66;5101464;28;20244;-70
2024/01/26 04:53:35;;;;;;;3.90;2.50;;;;;;;5.49;51.16;95381.22;5119666;28;20190;-71
2024/01/26 04:56:02;;;;;;;5.07;2.30;;;;;;;5.46;51.23;95368.97;5118920;28;20225;-72
2024/01/26 04:58:30;;;;;;;3.70;2.28;;;;;;;5.48;51.24;95371.38;5118302;28;20195;-72
2024/01/26 05:00:58;;;;;;;4.13;2.50;;;;;;;5.48;51.32;95371.38;5119418;28;20188;-72
2024/01/26 05:03:25;;;;;;;4.60;2.47;;;;;;;5.49;51.28;95376.53;5101977;28;20280;-71
2024/01/26 05:05:52;;;;;;;4.45;2.92;;;;;;;5.48;51.36;95365.91;5101419;28;20267;-69
2024/01/26 05:08:19;;;;;;;4.35;3.08;;;;;;;5.49;51.48;95356.59;5119009;28;20221;-68
2024/01/26 05:10:46;;;;;;;5.72;3.00;;;;;;;5.49;51.44;95359.31;5101145;28;20257;-69
2024/01/26 05:13:13;;;;;;;3.97;3.33;;;;;;;5.47;51.61;95361.56;5118650;28;20180;-69
2024/01/26 05:15:41;;;;;;;5.63;3.47;;;;;;;5.46;51.71;95358.00;5118641;28;20652;-70
2024/01/26 05:18:09;;;;;;;5.57;3.30;;;;;;;5.44;51.92;95357.50;5118908;28;20184;-72
2024/01/26 05:20:36;;;;;;;4.93;3.10;;;;;;;5.42;52.09;95369.91;5118022;28;20206;-72
2024/01/26 05:23:03;;;;;;;3.53;2.75;;;;;;;5.44;51.83;95357.50;5118926;28;20215;-72
2024/01/26 05:25:30;;;;;;;5.18;2.92;;;;;;;5.44;52.02;95376.66;5101480;28;20230;-72
2024/01/26 05:27:57;;;;;;;3.85;2.88;;;;;;;5.44;51.57;95360.25;5118451;28;20187;-73
2024/01/26 05:30:24;;;;;;;4.18;2.95;;;;;;;5.37;51.14;95359.06;5118221;28;20296;-73
2024/01/26 05:32:53;;;;;;;4.85;2.80;;;;;;;5.38;51.43;95363.44;5100728;28;20241;-73
2024/01/26 05:35:21;;;;;;;3.47;2.80;;;;;;;5.31;51.73;95361.97;5101215;28;20244;-69
2024/01/26 05:37:48;;;;;;;3.45;2.38;;;;;;;5.47;56.87;95373.31;5101167;28;20225;-73
2024/01/26 05:40:15;;;;;;;3.78;2.28;;;;;;;5.63;54.21;95383.84;5100846;28;20256;-75
2024/01/26 05:42:42;;;;;;;5.00;2.42;;;;;;;5.58;51.16;95384.78;5100571;28;20269;-76
2024/01/26 05:45:10;;;;;;;3.80;2.70;;;;;;;5.47;51.22;95380.72;5101015;28;20203;-74
2024/01/26 05:47:37;;;;;;;3.95;2.53;;;;;;;5.44;51.48;95387.59;5100661;28;20196;-74
2024/01/26 05:50:07;;;;;;;3.88;2.50;;;;;;;5.41;51.19;95388.25;5100375;28;20203;-76
2024/01/26 05:52:34;;;;;;;5.15;3.00;;;;;;;5.38;51.56;95399.00;5118528;28;20192;-76
2024/01/26 05:55:03;;;;;;;4.93;2.90;;;;;;;5.34;51.05;95403.47;5118293;28;20245;-74
2024/01/26 05:57:30;;;;;;;3.38;2.38;;;;;;;5.32;51.24;95398.31;5100755;28;20541;-74
2024/01/26 05:59:57;;;;;;;4.72;2.40;;;;;;;5.29;51.20;95398.94;5100591;28;20192;-75
2024/01/26 06:02:24;;;;;;;4.25;2.63;;;;;;;5.29;51.65;95399.72;5117599;28;20211;-76
2024/01/26 06:04:51;;;;;;;3.75;2.58;;;;;;;5.29;51.33;95402.47;5118994;28;20190;-75
2024/01/26 06:07:20;;;;;;;4.13;2.50;;;;;;;5.27;51.59;95399.25;5100441;28;20199;-74
2024/01/26 06:09:47;;;;;;;6.80;2.70;;;;;;;5.27;51.33;95390.25;5099920;28;20196;-75
2024/01/26 06:12:14;;;;;;;4.60;2.70;;;;;;;5.25;51.03;95389.75;5100014;28;20241;-75
2024/01/26 06:14:41;;;;;;;4.35;2.85;;;;;;;5.25;51.43;95389.75;5099913;28;20253;-75
2024/01/26 06:17:08;;;;;;;3.60;2.67;;;;;;;5.26;51.34;95386.69;5100016;28;20203;-75
2024/01/26 06:19:38;;;;;;;4.07;2.95;;;;;;;5.24;51.39;95382.66;5101008;28;20199;-75
2024/01/26 06:22:05;;;;;;;3.70;3.10;;;;;;;5.21;51.54;95372.34;5118118;28;20188;-75
2024/01/26 06:24:34;;;;;;;4.47;3.25;;;;;;;5.20;51.64;95370.72;5117594;28;20209;-75
2024/01/26 06:27:01;;;;;;;3.80;2.97;;;;;;;5.20;51.44;95371.53;5117809;28;20523;-75
2024/01/26 06:29:28;;;;;;;4.30;2.80;;;;;;;5.18;51.99;95378.44;5117474;28;20296;-77
2024/01/26 06:31:59;;;;;;;4.03;3.00;;;;;;;5.31;54.80;95374.81;5100005;28;20200;-75
2024/01/26 06:34:26;;;;;;;5.32;2.50;;;;;;;5.56;55.20;95387.06;5099734;28;20199;-75
2024/01/26 06:36:54;;;;;;;6.20;3.22;;;;;;;5.53;51.54;95388.47;5099400;28;20207;-76
2024/01/26 06:39:21;;;;;;;3.35;2.60;;;;;;;5.38;51.90;95383.41;5117269;28;20200;-76
2024/01/26 06:41:50;;;;;;;5.75;3.10;;;;;;;5.29;52.74;95386.06;5098995;28;20187;-75
2024/01/26 06:44:17;;;;;;;4.97;3.33;;;;;;;5.24;52.51;95386.19;5100466;28;20208;-76
2024/01/26 06:46:45;;;;;;;4.10;3.00;;;;;;;5.21;52.92;95392.28;5099560;28;20257;-76
2024/01/26 06:49:12;;;;;;;4.78;3.17;;;;;;;5.18;52.62;95397.56;5117368;28;20192;-77
2024/01/26 06:51:39;;;;;;;4.82;3.22;;;;;;;5.14;52.46;95394.66;5117463;28;20198;-77
2024/01/26 06:54:06;;;;;;;4.20;2.60;;;;;;;5.13;52.55;95395.78;5116878;28;20187;-72
2024/01/26 06:56:33;;;;;;;5.47;3.00;;;;;;;5.11;53.08;95397.19;5117412;28;20192;-72
2024/01/26 06:59:02;;;;;;;5.13;3.40;;;;;;;5.13;52.70;95393.03;5100160;28;20199;-74
2024/01/26 07:01:29;;;;;;;3.45;2.55;;;;;;;5.16;52.48;95400.63;5099649;28;20203;-71
2024/01/26 07:03:56;;;;;;;4.80;2.92;;;;;;;5.20;53.07;95400.81;5116804;28;20640;-71
2024/01/26 07:06:23;;;;;;;3.85;2.50;;;;;;;5.21;52.34;95408.69;5116854;28;20196;-71
2024/01/26 07:08:50;;;;;;;3.92;2.55;;;;;;;5.22;52.29;95407.56;5099210;28;20188;-71
2024/01/26 07:11:19;;;;;;;3.63;2.67;;;;;;;5.23;51.80;95405.66;5117082;28;20184;-71
2024/01/26 07:13:46;;;;;;;3.80;2.78;;;;;;;5.27;51.68;95412.94;5116735;28;20504;-71
2024/01/26 07:16:14;;;;;;;3.17;2.55;;;;;;;5.32;51.37;95410.06;5098602;28;20184;-70
2024/01/26 07:18:41;;;;;;;3.45;2.35;;;;;;;5.39;51.80;95415.09;5098972;28;20233;-70
2024/01/26 07:21:10;;;;;;;5.28;3.00;;;;;;;5.44;51.70;95422.38;5098300;28;20615;-71
2024/01/26 07:23:40;;;;;;;3.85;2.80;;;;;;;5.45;51.44;95424.00;5116819;28;20212;-71
2024/01/26 07:26:07;;;;;;;3.88;2.53;;;;;;;5.44;51.33;95414.97;5116325;28;20204;-74
2024/01/26 07:28:34;;;;;;;4.65;2.42;;;;;;;5.47;51.27;95425.28;5098598;28;20226;-72
2024/01/26 07:31:01;;;;;;;4.38;2.30;;;;;;;5.49;51.06;95417.59;5115954;28;20196;-72
2024/01/26 07:33:30;;;;;;;4.07;2.72;;;;;;;5.55;51.47;95423.72;5116211;28;20210;-72
2024/01/26 07:35:57;;;;;;;4.55;2.80;;;;;;;5.58;50.85;95425.03;5098050;28;20195;-74
2024/01/26 07:38:24;;;;;;;3.88;2.30;;;;;;;5.61;50.62;95414.28;5098716;28;20188;-73
2024/01/26 07:40:51;;;;;;;3.45;2.50;;;;;;;5.61;51.17;95418.94;5116430;28;20196;-73
2024/01/26 07:43:18;;;;;;;4.78;3.00;;;;;;;5.69;51.40;95420.91;5116580;28;20211;-73
2024/01/26 07:45:45;;;;;;;3.92;2.20;;;;;;;5.79;51.61;95429.66;5116507;28;20226;-72
2024/01/26 07:48:12;;;;;;;3.67;2.42;;;;;;;5.85;51.10;95433.09;5116030;28;20176;-69
2024/01/26 07:50:41;;;;;;;2.45;2.03;;;;;;;5.90;51.16;95434.88;5098886;28;20194;-72
2024/01/26 07:53:08;;;;;;;3.45;2.13;;;;;;;5.92;50.71;95419.78;5098331;28;20699;-73
2024/01/26 07:55:35;;;;;;;4.25;2.53;;;;;;;5.92;49.86;95432.63;5097825;28;20223;-73
2024/01/26 07:58:03;;;;;;;2.75;2.25;;;;;;;5.93;50.77;95437.84;5098203;28;20196;-73
2024/01/26 08:00:30;;;;;;;3.92;2.67;;;;;;;5.97;50.29;95443.50;5116420;28;20192;-70
2024/01/26 08:02:56;;;;;;;4.25;2.30;;;;;;;5.98;50.47;95440.44;5098707;28;20405;-70
2024/01/26 08:05:23;;;;;;;3.80;2.30;;;;;;;6.05;50.50;95445.47;5097931;28;20196;-70
2024/01/26 08:07:52;;;;;;;4.78;2.35;;;;;;;6.02;50.67;95429.66;5098258;28;20191;-71
2024/01/26 08:10:19;;;;;;;3.75;2.38;;;;;;;6.10;50.57;95447.25;5098599;28;20215;-72
2024/01/26 08:12:46;;;;;;;4.10;2.92;;;;;;;6.17;50.73;95440.22;5098091;28;20245;-72
2024/01/26 08:15:14;;;;;;;3.10;2.20;;;;;;;6.16;49.86;95449.53;5098535;28;20217;-71
2024/01/26 08:17:41;;;;;;;3.90;2.20;;;;;;;6.20;50.10;95461.47;5098512;28;20267;-72
2024/01/26 08:20:09;;;;;;;3.65;2.10;;;;;;;6.24;49.95;95465.19;5097753;28;20706;-71
2024/01/26 08:22:38;;;;;;;5.72;2.88;;;;;;;6.33;50.57;95461.69;5098422;28;20294;-72
2024/01/26 08:25:08;;;;;;;3.42;2.40;;;;;;;6.33;50.43;95462.50;5098252;28;20577;-72
2024/01/26 08:27:35;;;;;;;3.65;2.60;;;;;;;6.41;49.86;95474.63;5098311;28;20281;-70
2024/01/26 08:30:03;;;;;;;4.38;2.13;;;;;;;6.38;49.31;95458.81;5097577;28;20238;-71
2024/01/26 08:32:30;;;;;;;3.13;2.28;;;;;;;6.46;49.92;95458.03;5098378;28;20560;-71
2024/01/26 08:34:57;;;;;;;4.05;2.60;;;;;;;6.59;49.59;95437.94;5097910;28;20200;-71
2024/01/26 08:37:24;;;;;;;5.05;2.78;;;;;;;6.65;49.10;95439.41;5115247;28;20207;-71
2024/01/26 08:39:51;;;;;;;4.72;2.20;;;;;;;6.76;48.71;95450.88;5115734;28;20188;-71
2024/01/26 08:42:20;;;;;;;4.00;2.20;;;;;;;6.77;48.75;95440.72;5098067;28;20195;-68
2024/01/26 08:44:47;;;;;;;3.30;2.28;;;;;;;6.81;48.65;95455.41;5115315;28;20631;-73
2024/01/26 08:47:14;;;;;;;2.83;2.50;;;;;;;6.88;48.41;95442.03;5099906;28;20206;-77
2024/01/26 08:49:41;;;;;;;2.63;2.42;;;;;;;6.90;48.50;95454.28;5115581;28;20587;-73
2024/01/26 08:52:10;;;;;;;4.55;3.08;;;;;;;6.98;48.92;95455.44;5114349;28;20242;-77
2024/01/26 08:54:37;;;;;;;3.15;2.40;;;;;;;7.12;48.77;95471.75;5097441;28;20284;-77
2024/01/26 08:57:05;;;;;;;5.95;3.15;;;;;;;7.21;48.55;95462.38;5081141;28;20241;-72
2024/01/26 08:59:33;;;;;;;5.32;2.90;;;;;;;7.24;47.63;95459.00;5097991;28;20218;-72
2024/01/26 09:02:01;;;;;;;5.55;2.60;;;;;;;7.29;48.01;95458.03;5098109;28;20261;-73
2024/01/26 09:04:28;;;;;;;3.88;3.00;;;;;;;7.43;47.92;95458.66;5098759;28;20226;-70
2024/01/26 09:06:55;;;;;;;4.43;2.78;;;;;;;7.55;47.69;95485.47;5118934;28;20223;-75
2024/01/26 09:09:22;;;;;;;3.03;2.15;;;;;;;7.47;46.88;95467.88;5101182;28;20231;-70
2024/01/26 09:11:50;;;;;;;4.65;2.63;;;;;;;7.50;46.82;95455.44;5119141;28;20184;-71
2024/01/26 09:14:17;;;;;;;3.65;2.60;;;;;;;7.60;47.30;95448.81;5119854;28;20198;-72
2024/01/26 09:16:51;;;;;;;4.45;2.70;;;;;;;7.78;48.26;95452.38;5118792;28;20631;-71
2024/01/26 09:19:18;;;;;;;3.90;2.40;;;;;;;7.85;46.93;95453.47;5101214;28;20199;-71
2024/01/26 09:21:46;;;;;;;3.65;2.53;;;;;;;7.89;45.73;95459.94;5118109;28;20303;-70
2024/01/26 09:24:13;;;;;;;4.47;2.88;;;;;;;7.87;45.92;95453.13;5100947;28;20237;-68
2024/01/26 09:26:41;;;;;;;4.82;3.15;;;;;;;8.00;46.59;95437.59;5119083;28;20561;-70
2024/01/26 09:29:08;;;;;;;3.67;2.13;;;;;;;8.02;46.00;95441.63;5101030;28;20235;-70
2024/01/26 09:31:35;;;;;;;4.32;2.58;;;;;;;8.07;45.95;95446.16;5100917;28;20249;-71
2024/01/26 09:34:04;;;;;;;3.80;2.67;;;;;;;8.20;46.10;95443.19;5101096;28;20191;-70
2024/01/26 09:36:31;;;;;;;3.92;2.42;;;;;;;8.38;45.44;95443.94;5101160;28;20188;-70
2024/01/26 09:38:58;;;;;;;4.28;2.20;;;;;;;8.54;45.30;95443.44;5100716;28;20205;-69
2024/01/26 09:41:25;;;;;;;3.70;2.10;;;;;;;8.63;45.66;95433.97;5118615;28;20184;-70
2024/01/26 09:43:53;;;;;;;3.38;2.17;;;;;;;8.88;45.54;95439.66;5118547;28;20246;-70
2024/01/26 09:46:20;;;;;;;3.55;2.40;;;;;;;9.11;44.73;95432.72;5100507;28;20192;-70
2024/01/26 09:48:50;;;;;;;6.00;2.50;;;;;;;9.21;44.11;95438.97;5118495;28;20180;-69
2024/01/26 09:51:19;;;;;;;4.93;3.00;;;;;;;9.37;43.23;95445.50;5101326;28;20200;-69
2024/01/26 09:53:48;;;;;;;4.28;2.70;;;;;;;9.38;42.70;95434.13;5100246;28;20253;-72
2024/01/26 09:56:15;;;;;;;4.00;2.72;;;;;;;9.42;41.97;95437.03;5100909;28;20241;-67
2024/01/26 09:58:43;;;;;;;2.78;2.10;;;;;;;9.55;42.55;95426.84;5100305;28;20196;-69
2024/01/26 10:01:12;;;;;;;2.78;2.50;;;;;;;9.64;41.75;95438.63;5118201;28;20249;-71
2024/01/26 10:03:39;;;;;;;3.78;2.35;;;;;;;9.43;41.90;95422.09;5118372;28;20231;-71
2024/01/26 10:06:07;;;;;;;3.50;2.22;;;;;;;9.61;42.21;95412.53;5117767;28;20600;-69
2024/01/26 10:08:41;;;;;;;3.45;3.15;;;;;;;9.69;42.18;95402.59;5100442;28;20539;-74
2024/01/26 10:11:08;;;;;;;3.03;2.30;;;;;;;9.71;42.06;95389.28;5118086;28;20206;-73
2024/01/26 10:13:36;;;;;;;5.90;2.30;;;;;;;9.59;41.89;95384.56;5100049;28;20223;-69
2024/01/26 10:16:07;;;;;;;3.55;2.60;;;;;;;9.62;42.82;95399.56;5098080;28;20243;-69
2024/01/26 10:18:43;;;;;;;3.55;2.60;;;;;;;9.81;42.67;95388.06;5117209;28;20200;-69
2024/01/26 10:21:11;;;;;;;4.35;2.78;;;;;;;10.17;42.17;95384.59;5117801;28;20191;-69
2024/01/26 10:23:40;;;;;;;4.30;2.53;;;;;;;10.33;39.98;95388.28;5099633;28;20228;-69
2024/01/26 10:26:07;;;;;;;4.15;2.50;;;;;;;10.38;40.96;95378.97;5099603;28;20200;-69
2024/01/26 10:28:35;;;;;;;3.13;2.13;;;;;;;10.76;42.29;95375.88;5116477;28;20216;-70
2024/01/26 10:31:02;;;;;;;3.40;2.47;;;;;;;10.87;39.62;95384.50;5117103;28;20207;-71
2024/01/26 10:33:31;;;;;;;3.20;2.30;;;;;;;10.89;38.76;95384.13;5100469;28;20225;-71
2024/01/26 10:36:00;;;;;;;3.20;2.40;;;;;;;11.03;39.87;95379.84;5117426;28;20199;-71
2024/01/26 10:38:30;;;;;;;4.00;2.38;;;;;;;11.18;38.69;95389.38;5099729;28;20199;-72
2024/01/26 10:41:02;;;;;;;3.67;2.47;;;;;;;11.20;39.54;95387.06;5099856;28;20199;-72
2024/01/26 10:43:31;;;;;;;2.85;2.25;;;;;;;11.04;38.80;95377.94;5099917;28;20222;-73
2024/01/26 10:45:59;;;;;;;3.10;2.10;;;;;;;10.67;37.88;95385.41;5117499;28;20211;-74
2024/01/26 10:48:27;;;;;;;2.63;2.10;;;;;;;10.33;38.53;95377.28;5099559;28;20202;-74
2024/01/26 10:50:55;;;;;;;3.42;2.20;;;;;;;10.13;38.65;95384.47;5117221;28;20233;-73
2024/01/26 10:53:23;;;;;;;4.03;2.35;;;;;;;9.79;39.26;95382.09;5100204;28;20196;-71
2024/01/26 10:55:50;;;;;;;2.63;2.10;;;;;;;9.19;40.51;95380.69;5099811;28;20218;-71
2024/01/26 10:58:19;;;;;;;3.92;2.30;;;;;;;9.35;40.48;95378.94;5098884;28;20600;-71
2024/01/26 11:00:46;;;;;;;3.40;2.67;;;;;;;9.53;41.32;95385.09;5099326;28;20191;-73
2024/01/26 11:03:14;;;;;;;3.22;2.20;;;;;;;9.84;40.82;95385.44;5099093;28;20269;-73
2024/01/26 11:05:41;;;;;;;3.00;2.17;;;;;;;10.03;40.42;95392.38;5116760;28;20249;-73
2024/01/26 11:08:14;;;;;;;3.50;2.17;;;;;;;10.16;39.64;95385.72;5099257;28;20616;-73
2024/01/26 11:10:42;;;;;;;4.78;2.53;;;;;;;10.03;39.42;95373.88;5116756;28;20184;-68
2024/01/26 11:13:09;;;;;;;3.58;2.28;;;;;;;10.05;39.40;95365.25;5098612;28;20203;-70
2024/01/26 11:15:40;;;;;;;3.25;2.17;;;;;;;10.01;39.46;95375.34;5116918;28;20169;-70
2024/01/26 11:18:07;;;;;;;4.25;2.40;;;;;;;9.93;39.26;95379.81;5116770;28;20191;-71
2024/01/26 11:20:35;;;;;;;3.50;2.70;;;;;;;10.07;39.53;95377.56;5099161;28;20199;-75
2024/01/26 11:23:03;;;;;;;3.92;2.22;;;;;;;10.12;39.47;95365.50;5116816;28;20282;-71
2024/01/26 11:25:37;;;;;;;3.22;2.17;;;;;;;10.47;39.70;95373.38;5099520;28;20224;-73
2024/01/26 11:28:07;;;;;;;3.20;2.40;;;;;;;10.98;39.17;95371.81;5098834;28;20217;-71
2024/01/26 11:30:37;;;;;;;3.08;2.47;;;;;;;11.53;39.16;95363.94;5116098;28;20240;-72
2024/01/26 11:33:15;;;;;;;4.47;2.40;;;;;;;11.91;37.14;95369.00;5116795;28;20188;-68
2024/01/26 11:35:42;;;;;;;3.50;2.42;;;;;;;11.76;36.24;95367.78;5116260;28;20180;-68
2024/01/26 11:38:09;;;;;;;5.07;2.58;;;;;;;11.96;36.17;95351.34;5116551;28;20192;-67
2024/01/26 11:40:36;;;;;;;3.72;2.30;;;;;;;12.37;36.58;95343.66;5116198;28;20242;-68
2024/01/26 11:43:04;;;;;;;3.55;2.30;;;;;;;12.66;35.10;95342.38;5115834;28;20481;-70